Latest Weather Observations for PORTABLE RFSNSW52

IDN60801

Issued at 4:42 pm EST Monday 28 September 2020 (issued every 10 minutes, with the page automatically refreshed every 10 minutes)

About weather observations | Map of weather stations | Latest weather observations for NSW | Other Formats
Station Details ID: 250095 Name: PORTABLE RFSNSW52 Lat: -35.44 Lon: 146.44 Height: 146.0 m

Portable automatic weather stations (PAWS) are operated by other organisations, such as Fire and Emergency Services, and are included here by agreement. Portable stations may be deployed to a location for a short period and their location may be subject to change without notice. Wind observations from these stations are provided from heights of either three (3) or ten (10) metres above ground level (AGL).

Data from the previous 72 hours. | See also: Recent months for locations in New South Wales
Date/Time
EST
Temp
°C
App
Temp
°C
Dew
Point
°C
Rel
Hum
%
Delta-T
°C
Wind Press
QNH
hPa
Press
MSL
hPa
Rain since
9am
mm
Dir  Spd
km/h
Gust
km/h
Spd
kts
Gust
kts
28/04:30pm 19.2 17.1 3.9 36 7.3 ESE 4 6 2 3 - - 0.0
28/04:20pm 18.9 16.2 2.8 34 7.5 ESE 6 7 3 4 - - 0.0
28/04:10pm 18.8 16.4 5.3 41 6.6 E 7 9 4 5 - - 0.0
28/04:00pm 19.2 16.9 5.0 39 6.9 E 6 9 3 5 - - 0.0
28/03:50pm 19.2 16.8 4.5 38 7.1 NNE 6 7 3 4 - - 0.0
28/03:40pm 19.4 16.9 3.8 35 7.5 E 6 9 3 5 - - 0.0
28/03:30pm 19.1 16.7 4.1 37 7.2 E 6 11 3 6 - - 0.0
28/03:20pm 19.0 16.3 3.5 35 7.3 ENE 7 9 4 5 - - 0.0
28/03:10pm 19.5 17.4 5.6 40 6.9 NNE 6 9 3 5 - - 0.0
28/03:00pm 19.5 17.2 4.8 38 7.2 NW 6 9 3 5 - - 0.0
28/02:50pm 19.7 17.3 4.4 36 7.4 NW 6 9 3 5 - - 0.0
28/02:40pm 20.1 17.9 5.1 37 7.4 S 6 7 3 4 - - 0.0
28/02:30pm 19.8 17.5 4.9 37 7.3 S 6 7 3 4 - - 0.0
28/02:20pm 19.1 16.9 5.4 40 6.7 SW 6 7 3 4 - - 0.0
28/02:10pm 18.8 16.3 3.8 37 7.1 W 6 9 3 5 - - 0.0
28/02:00pm 18.9 16.6 4.9 39 6.8 NW 6 11 3 6 - - 0.0
28/01:50pm 18.9 16.6 5.0 40 6.8 NW 6 9 3 5 - - 0.0
28/01:40pm 19.4 17.4 4.5 37 7.2 NNE 4 6 2 3 - - 0.0
28/01:30pm 18.7 16.7 4.4 39 6.9 N 4 7 2 4 - - 0.0
28/01:20pm 18.8 16.8 4.5 39 6.9 WSW 4 7 2 4 - - 0.0
28/01:10pm 18.2 15.9 4.6 40 6.5 W 6 7 3 4 - - 0.0
28/01:00pm 18.1 15.7 4.3 40 6.6 NW 6 9 3 5 - - 0.0
28/12:50pm 17.9 15.3 3.1 37 6.9 NW 6 9 3 5 - - 0.0
28/12:40pm 17.6 14.8 5.0 43 6.1 W 9 13 5 7 - - 0.0
28/12:30pm 17.7 15.3 4.1 40 6.5 NNW 6 9 3 5 - - 0.0
28/12:20pm 17.6 15.3 4.6 42 6.2 NNW 6 11 3 6 - - 0.0
28/12:10pm 17.5 14.9 4.4 42 6.2 WNW 7 11 4 6 - - 0.0
28/12:00pm 17.2 14.8 5.3 45 5.8 W 7 13 4 7 - - 0.0
28/11:50am 17.2 15.6 6.3 48 5.4 ENE 4 4 2 2 - - 0.0
28/11:40am 16.6 14.0 4.0 43 5.9 NNW 7 13 4 7 - - 0.0
28/11:30am 16.6 14.2 4.3 44 5.8 N 6 11 3 6 - - 0.0
28/11:20am 16.5 14.0 4.6 45 5.7 NNW 7 11 4 6 - - 0.0
28/11:10am 16.1 13.3 5.0 47 5.3 WNW 9 13 5 7 - - 0.0
28/11:00am 16.2 14.0 5.1 47 5.3 WNW 6 11 3 6 - - 0.0
28/10:50am 16.0 14.0 6.2 52 4.8 NW 6 7 3 4 - - 0.0
28/10:40am 15.8 13.6 5.1 49 5.1 NW 6 6 3 3 - - 0.0
28/10:30am 15.8 13.7 5.8 51 4.8 W 6 7 3 4 - - 0.0
28/10:20am 15.2 13.1 6.0 54 4.5 W 6 7 3 4 - - 0.0
28/10:10am 15.1 13.6 6.8 57 4.1 N 4 6 2 3 - - 0.0
28/10:00am 14.2 12.3 6.7 60 3.7 NNW 6 7 3 4 - - 0.0
28/09:50am 13.6 11.7 6.5 62 3.4 WNW 6 9 3 5 - - 0.0
28/09:40am 13.2 11.2 6.4 63 3.3 WNW 6 7 3 4 - - 0.0
28/09:30am 12.8 10.8 6.3 64 3.1 NW 6 7 3 4 - - 0.0
28/09:20am 12.3 10.6 7.4 72 2.4 N 6 7 3 4 - - 0.0
28/09:10am 11.9 10.1 7.1 72 2.3 NNE 6 6 3 3 - - 0.0
28/09:00am 11.2 9.3 6.6 73 2.2 NNE 6 7 3 4 - - 0.0
28/08:50am 10.6 8.6 6.4 75 2.0 NNE 6 7 3 4 - - 0.0
28/08:40am 9.9 7.9 6.3 78 1.7 NE 6 6 3 3 - - 0.0
28/08:30am 9.3 7.6 6.0 80 1.5 NE 4 7 2 4 - - 0.0
28/08:20am 8.6 6.4 5.1 79 1.6 NE 6 6 3 3 - - 0.0
28/08:10am 7.9 5.6 5.0 82 1.3 NE 6 6 3 3 - - 0.0
28/08:00am 7.3 5.0 4.8 84 1.1 NE 6 6 3 3 - - 0.0
28/07:50am 6.9 4.9 4.4 84 1.1 NE 4 6 2 3 - - 0.0
28/07:40am 6.4 4.4 4.3 86 0.9 NNE 4 4 2 2 - - 0.0
28/07:30am 5.7 3.6 3.9 88 0.8 NE 4 4 2 2 - - 0.0
28/07:20am 5.1 2.9 3.3 88 0.8 NE 4 4 2 2 - - 0.0
28/07:10am 4.7 2.5 3.1 89 0.7 NNE 4 4 2 2 - - 0.0
28/07:00am 4.2 1.9 2.9 91 0.5 NNW 4 4 2 2 - - 0.0
28/06:50am 3.7 0.9 2.3 91 0.6 NW 6 6 3 3 - - 0.0
28/06:40am 3.3 0.9 2.3 93 0.4 N 4 4 2 2 - - 0.0
28/06:30am 2.4 0.3 1.9 96 0.2 N 2 4 1 2 - - 0.0
28/06:20am 1.6 -1.4 1.1 96 0.2 NW 6 7 3 4 - - 0.0
28/06:10am 0.8 -2.5 0.4 97 0.1 NW 7 9 4 5 - - 0.0
28/06:00am 0.2 -3.0 -0.2 97 0.1 WNW 6 6 3 3 - - 0.0
28/05:50am 0.5 -2.6 0.1 97 0.1 WNW 6 6 3 3 - - 0.0
28/05:40am 0.4 -2.7 0.0 97 0.1 NW 6 6 3 3 - - 0.0
28/05:30am 0.2 -3.0 -0.3 96 0.2 NW 6 6 3 3 - - 0.0
28/05:20am 0.5 -2.6 -0.1 96 0.2 NW 6 6 3 3 - - 0.0
28/05:10am 0.8 -1.9 0.2 96 0.2 WNW 4 6 2 3 - - 0.0
28/05:00am 1.1 -1.2 0.3 94 0.3 N 2 4 1 2 - - 0.0
28/04:50am 1.5 -1.5 0.9 96 0.2 E 6 6 3 3 - - 0.0
28/04:40am 1.9 -1.0 1.3 96 0.2 E 6 6 3 3 - - 0.0
28/04:30am 2.1 -0.4 1.6 96 0.2 ESE 4 4 2 2 - - 0.0
28/04:20am 2.1 -0.8 1.5 96 0.2 ESE 6 7 3 4 - - 0.0
28/04:10am 1.9 -1.2 1.4 96 0.2 ESE 7 7 4 4 - - 0.0
28/04:00am 2.0 -0.9 1.5 96 0.2 ESE 6 6 3 3 - - 0.0
28/03:50am 2.0 -0.5 1.6 97 0.2 SSE 4 4 2 2 - - 0.0
28/03:40am 1.9 -0.6 1.5 97 0.2 ESE 4 4 2 2 - - 0.0
28/03:30am 1.9 -0.3 1.3 96 0.2 ESE 2 4 1 2 - - 0.0
28/03:20am 1.9 -0.6 1.4 96 0.2 SE 4 4 2 2 - - 0.0
28/03:10am 1.9 -0.6 1.3 96 0.2 SSE 4 4 2 2 - - 0.0
28/03:00am 1.8 -0.7 1.4 97 0.2 S 4 4 2 2 - - 0.0
28/02:50am 1.7 -0.5 1.0 95 0.3 SSE 2 2 1 1 - - 0.0
28/02:40am 2.0 -0.1 1.4 96 0.2 S 2 2 1 1 - - 0.0
28/02:30am 2.1 0.0 1.5 96 0.2 SSW 2 4 1 2 - - 0.0
28/02:20am 2.2 0.0 1.3 94 0.3 SSE 2 2 1 1 - - 0.0
28/02:10am 2.7 0.6 1.9 94 0.3 SSW 2 2 1 1 - - 0.0
28/02:00am 2.9 0.8 1.8 92 0.4 S 2 2 1 1 - - 0.0
28/01:50am 3.1 1.0 1.8 91 0.5 SW 2 4 1 2 - - 0.0
28/01:40am 3.0 0.6 1.9 92 0.4 WSW 4 6 2 3 - - 0.0
28/01:30am 3.1 0.3 2.0 92 0.4 WSW 6 6 3 3 - - 0.0
28/01:20am 3.3 0.5 1.9 90 0.6 WSW 6 6 3 3 - - 0.0
28/01:10am 3.3 0.8 1.8 90 0.6 W 4 4 2 2 - - 0.0
28/01:00am 3.3 1.3 2.1 92 0.5 WNW 2 2 1 1 - - 0.0
28/12:50am 3.4 1.4 2.4 93 0.4 WNW 2 2 1 1 - - 0.0
28/12:40am 3.8 1.9 2.9 94 0.4 S 2 2 1 1 - - 0.0
28/12:30am 4.2 1.9 2.6 89 0.7 SSW 4 4 2 2 - - 0.0
28/12:20am 4.4 2.0 2.0 84 1.0 SSW 4 6 2 3 - - 0.0
28/12:10am 4.8 2.4 2.1 83 1.1 SW 4 6 2 3 - - 0.0
28/12:00am 5.1 2.3 1.9 80 1.3 SSW 6 6 3 3 - - 0.0
 
Date/Time
EST
Temp
°C
App
Temp
°C
Dew
Point
°C
Rel
Hum
%
Delta-T
°C
Wind Press
QNH
hPa
Press
MSL
hPa
Rain since
9am
mm
Dir  Spd
km/h
Gust
km/h
Spd
kts
Gust
kts
27/11:50pm 5.1 2.3 1.9 80 1.3 SSW 6 7 3 4 - - 0.0
27/11:40pm 5.1 2.1 1.9 80 1.3 SSW 7 7 4 4 - - 0.0
27/11:30pm 5.1 1.7 1.8 79 1.3 SSW 9 9 5 5 - - 0.0
27/11:20pm 5.1 2.1 2.0 80 1.3 SSW 7 9 4 5 - - 0.0
27/11:10pm 5.4 2.4 2.2 80 1.3 SW 7 7 4 4 - - 0.0
27/11:00pm 5.9 2.9 2.0 76 1.6 SSW 7 7 4 4 - - 0.0
27/10:50pm 6.1 3.1 2.0 75 1.7 SSW 7 7 4 4 - - 0.0
27/10:40pm 6.5 3.5 2.0 73 1.8 SSW 7 7 4 4 - - 0.0
27/10:30pm 6.6 3.6 1.9 72 1.9 SSW 7 7 4 4 - - 0.0
27/10:20pm 6.7 3.7 2.1 72 1.9 SSW 7 7 4 4 - - 0.0
27/10:10pm 6.7 3.7 2.0 72 1.9 SSW 7 7 4 4 - - 0.0
27/10:00pm 6.6 3.8 2.0 72 1.9 SW 6 6 3 3 - - 0.0
27/09:50pm 6.5 3.7 2.2 74 1.8 SW 6 6 3 3 - - 0.0
27/09:40pm 6.5 3.6 2.5 75 1.7 SW 7 7 4 4 - - 0.0
27/09:30pm 6.6 3.7 2.6 75 1.7 SSW 7 7 4 4 - - 0.0
27/09:20pm 6.7 3.8 2.8 76 1.6 SW 7 7 4 4 - - 0.0
27/09:10pm 7.1 4.2 2.6 73 1.9 SSW 7 9 4 5 - - 0.0
27/09:00pm 7.1 4.2 2.6 73 1.9 SSW 7 9 4 5 - - 0.0
27/08:50pm 7.1 3.8 2.7 73 1.8 SW 9 9 5 5 - - 0.0
27/08:40pm 7.1 4.3 2.9 74 1.8 SW 7 7 4 4 - - 0.0
27/08:30pm 7.3 4.5 3.0 74 1.8 SW 7 7 4 4 - - 0.0
27/08:20pm 7.5 4.7 3.0 73 1.9 SW 7 9 4 5 - - 0.0
27/08:10pm 7.6 4.8 3.0 72 2.0 SW 7 7 4 4 - - 0.0
27/08:00pm 7.8 5.0 3.1 72 2.0 SW 7 9 4 5 - - 0.0
27/07:50pm 8.0 5.1 2.8 70 2.2 SW 7 9 4 5 - - 0.0
27/07:40pm 7.6 4.8 3.0 72 2.0 SW 7 7 4 4 - - 0.0
27/07:30pm 7.7 5.2 3.5 75 1.8 WSW 6 7 3 4 - - 0.0
27/07:20pm 7.8 5.1 3.6 75 1.8 SW 7 7 4 4 - - 0.0
27/07:10pm 8.0 5.4 4.1 76 1.7 SW 7 9 4 5 - - 0.0
27/07:00pm 8.4 5.8 4.0 74 1.9 SW 7 7 4 4 - - 0.0
27/06:50pm 8.8 6.2 4.3 73 2.0 SW 7 9 4 5 - - 0.0
27/06:40pm 9.3 6.2 3.8 68 2.4 SSW 9 9 5 5 - - 0.0
27/06:30pm 9.8 7.2 4.4 69 2.4 SSW 7 9 4 5 - - 0.0
27/06:20pm 10.5 8.0 4.5 66 2.7 SSW 7 9 4 5 - - 0.0
27/06:10pm 11.4 8.9 5.0 65 2.9 SSW 7 9 4 5 - - 0.0
27/06:00pm 12.5 10.1 5.4 62 3.3 SSW 7 9 4 5 - - 0.0
27/05:50pm 13.4 11.1 5.5 59 3.7 SSW 7 9 4 5 - - 0.0
27/05:40pm 14.0 11.2 5.0 54 4.2 SSW 9 9 5 5 - - 0.0
27/05:30pm 14.6 11.5 3.8 48 5.0 SSW 9 9 5 5 - - 0.0
27/05:20pm 15.0 12.0 4.1 48 5.1 SW 9 9 5 5 - - 0.0
27/05:10pm 15.0 11.6 3.9 47 5.1 SW 11 11 6 6 - - 0.0
27/05:00pm 15.9 12.3 2.7 41 6.0 SSW 11 13 6 7 - - 0.0
27/04:50pm 16.0 12.0 2.6 40 6.1 SSW 13 15 7 8 - - 0.0
27/04:40pm 16.1 12.1 3.0 41 6.0 SSW 13 15 7 8 - - 0.0
27/04:30pm 16.0 11.2 2.5 40 6.1 SSW 17 22 9 12 - - 0.0
27/04:20pm 16.3 11.9 2.6 39 6.2 SSW 15 19 8 10 - - 0.0
27/04:10pm 16.7 12.3 2.9 39 6.3 SSW 15 19 8 10 - - 0.0
27/04:00pm 16.8 12.6 3.9 42 6.1 SW 15 19 8 10 - - 0.0
27/03:50pm 17.2 13.4 3.7 40 6.3 S 13 17 7 9 - - 0.0
27/03:40pm 17.2 13.0 3.9 41 6.3 SSW 15 19 8 10 - - 0.0
27/03:30pm 17.1 12.1 3.4 40 6.4 SSW 19 22 10 12 - - 0.0
27/03:20pm 17.6 12.9 5.0 43 6.1 SW 19 24 10 13 - - 0.0
27/03:10pm 17.8 14.3 3.3 38 6.8 SSW 11 19 6 10 - - 0.0
27/03:00pm 17.2 13.5 4.2 42 6.2 SW 13 17 7 9 - - 0.0
27/02:50pm 16.9 12.8 4.5 43 5.9 SSW 15 22 8 12 - - 0.0
27/02:40pm 15.8 11.2 3.9 45 5.5 SSW 17 20 9 11 - - 0.0
27/02:30pm 16.0 11.3 5.0 48 5.2 SSW 19 22 10 12 - - 0.0
27/02:20pm 17.9 13.4 4.0 39 6.6 SSW 17 22 9 12 - - 0.0
27/02:10pm 17.0 12.1 2.0 36 6.8 SW 17 20 9 11 - - 0.0
27/02:00pm 15.9 11.4 2.4 40 6.1 SSW 15 22 8 12 - - 0.0
27/01:50pm 16.2 11.7 4.3 45 5.6 SSW 17 22 9 12 - - 0.0
27/01:40pm 17.1 13.0 4.3 42 6.1 SSW 15 19 8 10 - - 0.0
27/01:30pm 16.9 13.2 4.5 43 5.9 SSW 13 19 7 10 - - 0.0
27/01:20pm 17.2 13.1 6.2 48 5.4 SW 17 22 9 12 - - 0.0
27/01:10pm 17.3 12.8 4.0 41 6.3 SW 17 19 9 10 - - 0.0
27/01:00pm 17.1 13.1 4.9 44 5.9 SW 15 19 8 10 - - 0.0
27/12:50pm 17.0 13.4 4.8 44 5.8 SW 13 19 7 10 - - 0.0
27/12:40pm 16.9 13.1 5.6 47 5.5 SW 15 19 8 10 - - 0.0
27/12:30pm 16.3 12.8 5.6 49 5.2 S 13 17 7 9 - - 0.0
27/12:20pm 16.4 13.1 6.4 51 4.9 SSW 13 19 7 10 - - 0.0
27/12:10pm 17.2 13.5 4.4 42 6.1 SSW 13 19 7 10 - - 0.0
27/12:00pm 16.7 13.2 5.6 48 5.4 SW 13 17 7 9 - - 0.0
27/11:50am 16.7 13.2 5.5 47 5.4 SSW 13 17 7 9 - - 0.0
27/11:40am 16.0 12.5 5.5 49 5.1 SSW 13 17 7 9 - - 0.0
27/11:30am 15.1 11.4 6.5 56 4.2 S 15 19 8 10 - - 0.0
27/11:20am 16.3 12.5 5.9 50 5.1 S 15 19 8 10 - - 0.0
27/11:10am 16.3 12.9 6.1 51 5.0 S 13 19 7 10 - - 0.0
27/11:00am 15.7 12.0 6.3 53 4.6 S 15 19 8 10 - - 0.0
27/10:50am 15.0 11.4 6.8 58 4.0 S 15 20 8 11 - - 0.0
27/10:40am 15.0 12.3 7.2 59 3.9 S 11 15 6 8 - - 0.0
27/10:30am 14.9 11.4 7.0 59 3.9 S 15 17 8 9 - - 0.0
27/10:20am 14.8 11.7 7.4 61 3.7 S 13 19 7 10 - - 0.0
27/10:10am 14.3 10.7 6.7 60 3.7 S 15 19 8 10 - - 0.0
27/10:00am 13.8 9.9 7.1 64 3.3 SSW 17 19 9 10 - - 0.0
27/09:50am 13.6 9.8 7.5 66 3.0 SSW 17 20 9 11 - - 0.0
27/09:40am 12.9 9.1 7.5 69 2.7 SSW 17 20 9 11 - - 0.0
27/09:30am 12.8 9.0 7.5 70 2.6 SSW 17 19 9 10 - - 0.0
27/09:20am 12.4 8.6 7.7 73 2.3 SSW 17 20 9 11 - - 0.0
27/09:10am 11.9 7.6 7.1 72 2.3 SW 19 20 10 11 - - 0.0
27/09:00am 11.7 7.5 7.3 74 2.1 SSW 19 22 10 12 - - 0.0
27/08:50am 11.2 7.8 7.6 78 1.8 SW 15 17 8 9 - - 0.0
27/08:40am 10.7 7.2 7.4 80 1.6 SW 15 19 8 10 - - 0.0
27/08:30am 10.1 6.1 6.6 79 1.7 SW 17 19 9 10 - - 0.0
27/08:20am 9.8 5.9 6.9 82 1.4 SSW 17 20 9 11 - - 0.0
27/08:10am 9.1 5.4 6.5 84 1.2 SW 15 19 8 10 - - 0.0
27/08:00am 8.3 5.0 6.3 87 0.9 SW 13 15 7 8 - - 0.0
27/07:50am 7.5 4.4 5.5 87 0.9 WSW 11 15 6 8 - - 0.0
27/07:40am 6.6 3.4 5.1 90 0.7 WSW 11 13 6 7 - - 0.0
27/07:30am 5.9 2.2 4.3 89 0.7 WSW 13 15 7 8 - - 0.0
27/07:20am 5.3 1.9 4.1 92 0.5 WSW 11 11 6 6 - - 0.0
27/07:10am 4.8 1.7 3.7 93 0.5 WSW 9 11 5 6 - - 0.0
27/07:00am 4.3 1.5 3.2 93 0.5 WSW 7 7 4 4 - - 0.0
27/06:50am 3.6 0.4 2.8 94 0.3 W 9 9 5 5 - - 0.0
27/06:40am 2.9 -0.1 2.1 94 0.3 WSW 7 7 4 4 - - 0.0
27/06:30am 2.5 -0.5 1.7 94 0.3 W 7 7 4 4 - - 0.0
27/06:20am 2.1 -1.0 1.5 96 0.2 W 7 7 4 4 - - 0.0
27/06:10am 1.8 -1.7 1.3 96 0.2 W 9 9 5 5 - - 0.0
27/06:00am 1.7 -1.8 1.3 97 0.2 WSW 9 9 5 5 - - 0.0
27/05:50am 1.7 -1.8 1.4 98 0.1 WSW 9 9 5 5 - - 0.0
27/05:40am 1.9 -1.2 1.5 97 0.2 W 7 7 4 4 - - 0.0
27/05:30am 2.1 -0.8 1.6 96 0.2 WSW 6 6 3 3 - - 0.0
27/05:20am 2.1 -0.8 1.6 96 0.2 WSW 6 7 3 4 - - 0.0
27/05:10am 2.4 -0.6 1.9 96 0.2 WSW 7 9 4 5 - - 0.0
27/05:00am 2.6 -0.8 2.0 96 0.2 WSW 9 9 5 5 - - 0.0
27/04:50am 2.7 -0.7 2.1 96 0.2 WSW 9 9 5 5 - - 0.0
27/04:40am 2.7 -0.6 2.2 96 0.2 WSW 9 11 5 6 - - 0.0
27/04:30am 2.8 -0.5 2.2 96 0.2 W 9 11 5 6 - - 0.0
27/04:20am 3.0 -0.7 2.4 96 0.2 WSW 11 11 6 6 - - 0.0
27/04:10am 2.9 -0.8 2.4 96 0.2 WSW 11 11 6 6 - - 0.0
27/04:00am 3.2 -0.1 2.6 96 0.2 WSW 9 11 5 6 - - 0.0
27/03:50am 3.5 0.2 2.7 94 0.3 WSW 9 11 5 6 - - 0.0
27/03:40am 3.5 -0.1 2.8 95 0.3 WSW 11 13 6 7 - - 0.0
27/03:30am 3.3 -0.3 2.7 96 0.2 WSW 11 11 6 6 - - 0.0
27/03:20am 3.3 -0.3 2.7 96 0.2 WSW 11 11 6 6 - - 0.0
27/03:10am 3.3 -0.3 2.7 96 0.2 WSW 11 13 6 7 - - 0.0
27/03:00am 3.5 -0.1 2.8 95 0.3 WSW 11 13 6 7 - - 0.0
27/02:50am 3.5 -0.1 2.8 95 0.3 WSW 11 11 6 6 - - 0.0
27/02:40am 3.5 -0.1 2.8 95 0.3 W 11 13 6 7 - - 0.0
27/02:30am 3.6 0.0 2.9 95 0.3 WSW 11 11 6 6 - - 0.0
27/02:20am 3.7 0.1 3.0 95 0.3 WSW 11 13 6 7 - - 0.0
27/02:10am 3.6 0.0 3.0 96 0.2 W 11 13 6 7 - - 0.0
27/02:00am 3.7 0.1 2.9 94 0.3 W 11 13 6 7 - - 0.0
27/01:50am 3.7 0.1 3.0 95 0.3 WSW 11 13 6 7 - - 0.0
27/01:40am 3.9 0.3 3.1 94 0.3 WSW 11 13 6 7 - - 0.0
27/01:30am 4.2 0.7 3.3 94 0.4 WSW 11 13 6 7 - - 0.0
27/01:20am 4.3 0.8 3.4 94 0.4 WSW 11 13 6 7 - - 0.0
27/01:10am 4.4 0.9 3.5 94 0.4 WSW 11 11 6 6 - - 0.0
27/01:00am 4.7 1.2 3.7 93 0.4 WSW 11 13 6 7 - - 0.0
27/12:50am 4.6 1.1 3.7 94 0.4 WSW 11 13 6 7 - - 0.0
27/12:40am 4.6 1.2 3.8 95 0.3 WSW 11 13 6 7 - - 0.0
27/12:30am 4.6 1.2 3.8 95 0.3 WSW 11 11 6 6 - - 0.0
27/12:20am 4.7 2.0 3.9 95 0.3 WSW 7 9 4 5 - - 0.0
27/12:10am 5.0 2.0 3.9 93 0.5 WSW 9 11 5 6 - - 0.0
27/12:00am 5.4 2.4 4.2 92 0.5 WSW 9 11 5 6 - - 0.0
 
Date/Time
EST
Temp
°C
App
Temp
°C
Dew
Point
°C
Rel
Hum
%
Delta-T
°C
Wind Press
QNH
hPa
Press
MSL
hPa
Rain since
9am
mm
Dir  Spd
km/h
Gust
km/h
Spd
kts
Gust
kts
26/11:50pm 5.5 2.9 4.3 92 0.5 WSW 7 9 4 5 - - 0.0
26/11:40pm 5.3 2.3 4.1 92 0.5 WSW 9 11 5 6 - - 0.0
26/11:30pm 5.3 1.9 4.0 91 0.6 WSW 11 11 6 6 - - 0.0
26/11:20pm 5.5 2.1 4.1 91 0.6 WSW 11 13 6 7 - - 0.0
26/11:10pm 5.6 1.8 4.1 90 0.6 WSW 13 15 7 8 - - 0.0
26/11:00pm 5.5 1.7 4.0 90 0.6 W 13 15 7 8 - - 0.0
26/10:50pm 5.3 1.5 3.9 91 0.6 WSW 13 15 7 8 - - 0.0
26/10:40pm 5.4 1.6 3.8 89 0.7 WSW 13 15 7 8 - - 0.0
26/10:30pm 5.4 2.0 3.8 89 0.7 WSW 11 13 6 7 - - 0.0
26/10:20pm 5.6 1.8 3.9 89 0.7 WSW 13 15 7 8 - - 0.0
26/10:10pm 5.9 2.1 4.0 88 0.8 WSW 13 15 7 8 - - 0.0
26/10:00pm 6.0 1.8 3.9 86 0.9 W 15 15 8 8 - - 0.0
26/09:50pm 6.1 2.3 3.8 85 1.0 W 13 13 7 7 - - 0.0
26/09:40pm 6.0 2.6 3.8 86 0.9 W 11 13 6 7 - - 0.0
26/09:30pm 5.8 2.3 3.6 86 0.9 W 11 13 6 7 - - 0.0
26/09:20pm 5.7 2.2 3.5 86 0.9 W 11 11 6 6 - - 0.0
26/09:10pm 5.9 2.5 3.8 86 0.9 W 11 13 6 7 - - 0.0
26/09:00pm 6.1 3.0 3.7 84 1.0 W 9 11 5 6 - - 0.0
26/08:50pm 6.4 3.3 3.8 83 1.1 W 9 11 5 6 - - 0.0
26/08:40pm 6.5 3.1 4.0 84 1.1 W 11 13 6 7 - - 0.0
26/08:30pm 6.7 3.7 4.0 83 1.2 W 9 11 5 6 - - 0.0
26/08:20pm 6.7 4.0 3.9 82 1.2 W 7 9 4 5 - - 0.0
26/08:10pm 6.5 3.5 4.1 85 1.0 WSW 9 11 5 6 - - 0.0
26/08:00pm 6.7 3.7 4.1 83 1.1 WSW 9 9 5 5 - - 0.0
26/07:50pm 7.0 4.1 4.4 83 1.1 WSW 9 11 5 6 - - 0.0
26/07:40pm 7.6 3.9 4.3 79 1.4 SW 13 15 7 8 - - 0.0
26/07:30pm 7.3 4.2 3.8 78 1.5 SW 9 13 5 7 - - 0.0
26/07:20pm 7.5 4.9 4.3 80 1.4 WSW 7 9 4 5 - - 0.0
26/07:10pm 8.0 5.5 4.5 78 1.5 WSW 7 9 4 5 - - 0.0
26/07:00pm 8.5 5.9 4.3 75 1.9 WSW 7 9 4 5 - - 0.0
26/06:50pm 9.2 6.3 4.5 72 2.1 WSW 9 11 5 6 - - 0.0
26/06:40pm 10.1 6.8 4.7 69 2.4 SW 11 13 6 7 - - 0.0
26/06:30pm 10.7 7.4 4.8 67 2.7 SW 11 13 6 7 - - 0.0
26/06:20pm 11.3 7.7 4.8 64 3.0 SW 13 15 7 8 - - 0.0
26/06:10pm 11.8 8.5 4.7 62 3.3 SW 11 13 6 7 - - 0.0
26/06:00pm 12.3 8.9 4.0 57 3.8 SW 11 13 6 7 - - 0.0
26/05:50pm 12.2 8.5 4.4 59 3.6 WSW 13 15 7 8 - - 0.0
26/05:40pm 11.9 8.1 3.9 58 3.6 SW 13 15 7 8 - - 0.0
26/05:30pm 11.8 8.0 4.1 59 3.5 SW 13 17 7 9 - - 0.0
26/05:20pm 12.2 8.4 3.9 57 3.8 SW 13 15 7 8 - - 0.0
26/05:10pm 11.9 7.7 3.8 57 3.6 SW 15 17 8 9 - - 0.0
26/05:00pm 12.3 7.6 3.3 54 4.0 SW 17 19 9 10 - - 0.0
26/04:50pm 12.4 7.7 3.2 53 4.1 SW 17 20 9 11 - - 0.0
26/04:40pm 13.0 7.9 3.0 50 4.5 SW 19 22 10 12 - - 0.0
26/04:30pm 13.7 8.8 4.0 52 4.4 SW 19 20 10 11 - - 0.0
26/04:20pm 13.1 7.9 3.5 52 4.3 SW 20 24 11 13 - - 0.0
26/04:10pm 14.6 8.7 2.0 42 5.6 WSW 22 28 12 15 - - 0.0
26/04:00pm 15.0 8.9 2.5 43 5.6 WSW 24 28 13 15 - - 0.0
26/03:50pm 15.0 8.9 3.0 44 5.4 WSW 24 32 13 17 - - 0.0
26/03:40pm 14.5 8.5 3.3 47 5.1 WSW 24 32 13 17 - - 0.0
26/03:30pm 15.1 9.5 3.5 46 5.3 WSW 22 30 12 16 - - 0.0
26/03:20pm 14.1 8.4 2.8 46 5.1 SW 22 28 12 15 - - 0.0
26/03:10pm 15.0 9.0 3.4 45 5.3 WSW 24 30 13 16 - - 0.0
26/03:00pm 14.6 8.5 2.7 44 5.3 WSW 24 33 13 18 - - 0.0
26/02:50pm 13.6 7.4 4.3 53 4.3 WSW 26 32 14 17 - - 0.0
26/02:40pm 15.2 9.9 4.8 50 4.9 WSW 22 28 12 15 - - 0.0
26/02:30pm 13.7 8.1 3.4 50 4.7 SW 22 24 12 13 - - 0.0
26/02:20pm 13.9 8.3 3.4 49 4.8 WSW 22 26 12 14 - - 0.0
26/02:10pm 13.0 7.6 4.5 56 3.9 WSW 22 24 12 13 - - 0.0
26/02:00pm 14.0 9.0 4.6 53 4.4 SW 20 26 11 14 - - 0.0
26/01:50pm 14.1 9.0 5.8 57 4.0 SW 22 26 12 14 - - 0.0
26/01:40pm 14.3 8.9 4.5 51 4.6 SW 22 28 12 15 - - 0.0
26/01:30pm 14.9 9.2 4.8 51 4.8 SW 24 30 13 16 - - 0.0
26/01:20pm 14.6 9.4 5.6 54 4.3 WSW 22 28 12 15 - - 0.0
26/01:10pm 13.9 8.2 4.9 54 4.2 WSW 24 28 13 15 - - 0.0
26/01:00pm 14.0 7.8 4.4 52 4.5 WSW 26 30 14 16 - - 0.0
26/12:50pm 13.2 7.4 6.1 62 3.4 SW 26 32 14 17 - - 0.0
26/12:40pm 13.4 8.2 5.5 59 3.7 SW 22 30 12 16 - - 0.0
26/12:30pm 13.7 9.1 5.7 58 3.8 SW 19 24 10 13 - - 0.0
26/12:20pm 13.0 7.8 5.7 61 3.5 SW 22 26 12 14 - - 0.0
26/12:10pm 13.0 8.3 5.9 62 3.4 SW 20 26 11 14 - - 0.0
26/12:00pm 12.4 7.3 5.8 64 3.1 SW 22 24 12 13 - - 0.0
26/11:50am 12.3 7.1 5.7 64 3.1 SSW 22 26 12 14 - - 0.0
26/11:40am 12.1 7.4 6.0 66 2.9 SSW 20 24 11 13 - - 0.0
26/11:30am 11.9 6.8 6.0 67 2.8 SSW 22 26 12 14 - - 0.0
26/11:20am 12.0 6.9 5.8 66 2.9 SW 22 28 12 15 - - 0.0
26/11:10am 11.1 5.7 6.2 72 2.3 SW 24 26 13 14 - - 0.0
26/11:00am 11.0 5.9 6.0 71 2.3 WSW 22 26 12 14 - - 0.0
26/10:50am 10.7 6.1 6.7 76 1.9 WSW 20 26 11 14 - - 0.0
26/10:40am 10.8 5.7 5.8 71 2.3 WSW 22 26 12 14 - - 0.0
26/10:30am 10.4 5.9 6.8 78 1.7 WSW 20 26 11 14 - - 0.0
26/10:20am 10.1 5.6 6.8 80 1.6 WSW 20 24 11 13 - - 0.0
26/10:10am 9.4 5.0 6.5 82 1.4 WSW 19 22 10 12 - - 0.0
26/10:00am 9.1 3.9 5.6 79 1.6 WSW 22 28 12 15 - - 0.0
26/09:50am 8.9 3.8 6.2 83 1.3 WSW 22 28 12 15 - - 0.0
26/09:40am 9.0 4.3 6.2 82 1.3 WSW 20 26 11 14 - - 0.0
26/09:30am 9.0 4.4 6.3 83 1.3 WSW 20 24 11 13 - - 0.0
26/09:20am 8.7 3.6 5.9 82 1.3 WSW 22 24 12 13 - - 0.0
26/09:10am 8.3 3.5 5.7 84 1.2 WSW 20 26 11 14 - - 0.0
26/09:00am 7.5 2.6 5.3 86 1.0 WSW 20 26 11 14 - - 7.2
26/08:50am 7.4 2.7 5.2 86 1.0 WSW 19 22 10 12 - - 7.2
26/08:40am 7.0 2.4 5.5 90 0.7 WSW 19 22 10 12 - - 7.2
26/08:30am 6.5 1.5 4.8 89 0.7 WSW 20 26 11 14 - - 7.2
26/08:20am 6.3 2.0 5.4 94 0.4 WSW 17 20 9 11 - - 7.2
26/08:10am 5.9 1.5 4.6 91 0.6 WSW 17 20 9 11 - - 7.2
26/08:00am 5.3 0.8 4.4 94 0.4 WSW 17 19 9 10 - - 7.2
26/07:50am 5.0 0.5 4.0 93 0.4 W 17 20 9 11 - - 7.2
26/07:40am 4.9 0.4 4.0 94 0.4 W 17 22 9 12 - - 7.2
26/07:30am 4.7 0.1 3.9 95 0.3 W 17 19 9 10 - - 7.2
26/07:20am 4.4 0.2 3.6 95 0.3 W 15 17 8 9 - - 7.2
26/07:10am 4.1 -0.2 3.3 94 0.3 W 15 17 8 9 - - 7.2
26/07:00am 3.7 -0.6 3.0 95 0.3 W 15 17 8 9 - - 7.2
26/06:50am 3.6 -0.8 2.7 94 0.4 W 15 17 8 9 - - 7.2
26/06:40am 3.6 -0.4 2.8 94 0.3 W 13 15 7 8 - - 7.2
26/06:30am 3.1 -0.6 2.2 94 0.4 W 11 15 6 8 - - 7.2
26/06:20am 2.6 -2.0 1.8 94 0.3 W 15 19 8 10 - - 7.2
26/06:10am 2.3 -1.9 1.7 96 0.2 W 13 15 7 8 - - 7.2
26/06:00am 2.1 -2.1 1.6 96 0.2 W 13 15 7 8 - - 7.2
26/05:50am 2.1 -2.1 1.5 96 0.2 W 13 19 7 10 - - 7.2
26/05:40am 2.0 -2.2 1.5 96 0.2 W 13 15 7 8 - - 7.2
26/05:30am 2.1 -2.5 1.5 96 0.2 W 15 17 8 9 - - 7.2
26/05:20am 2.1 -2.5 1.5 96 0.2 W 15 17 8 9 - - 7.2
26/05:10am 2.0 -2.6 1.5 96 0.2 W 15 17 8 9 - - 7.2
26/05:00am 2.0 -2.2 1.4 96 0.2 W 13 15 7 8 - - 7.2
26/04:50am 2.0 -2.2 1.4 96 0.2 W 13 15 7 8 - - 7.2
26/04:40am 2.0 -2.2 1.4 96 0.2 W 13 17 7 9 - - 7.2
26/04:30am 2.0 -2.2 1.4 96 0.2 W 13 17 7 9 - - 7.2
26/04:20am 1.9 -2.4 1.3 96 0.2 W 13 15 7 8 - - 7.2
26/04:10am 2.1 -2.5 1.5 96 0.2 W 15 17 8 9 - - 7.2
26/04:00am 2.1 -2.5 1.5 96 0.2 W 15 17 8 9 - - 7.2
26/03:50am 2.1 -2.5 1.5 96 0.2 W 15 17 8 9 - - 7.2
26/03:40am 2.2 -2.4 1.6 96 0.2 W 15 17 8 9 - - 7.2
26/03:30am 2.4 -1.8 1.7 95 0.3 W 13 17 7 9 - - 7.2
26/03:20am 2.4 -1.8 1.8 96 0.2 W 13 15 7 8 - - 7.2
26/03:10am 2.6 -1.2 1.9 95 0.3 W 11 13 6 7 - - 7.2
26/03:00am 2.9 -1.6 2.1 94 0.3 W 15 17 8 9 - - 7.2
26/02:50am 3.0 -1.5 2.2 94 0.3 W 15 17 8 9 - - 7.2
26/02:40am 3.1 -1.4 2.2 94 0.4 W 15 17 8 9 - - 7.2
26/02:30am 3.2 -1.3 2.3 94 0.4 W 15 17 8 9 - - 7.2
26/02:20am 3.4 -1.4 2.5 94 0.4 W 17 19 9 10 - - 7.2
26/02:10am 3.5 -1.7 2.5 93 0.4 W 19 20 10 11 - - 7.2
26/02:00am 3.4 -1.4 2.5 94 0.4 W 17 22 9 12 - - 7.2
26/01:50am 3.5 -1.3 2.6 94 0.4 W 17 20 9 11 - - 7.2
26/01:40am 3.4 -1.4 2.5 94 0.4 W 17 19 9 10 - - 7.2
26/01:30am 3.3 -1.5 2.4 94 0.4 W 17 17 9 9 - - 7.2
26/01:20am 3.4 -1.4 2.4 93 0.4 W 17 17 9 9 - - 7.2
26/01:10am 3.4 -1.4 2.5 94 0.4 W 17 19 9 10 - - 7.2
26/01:00am 3.5 -0.9 2.5 93 0.4 W 15 17 8 9 - - 7.2
26/12:50am 3.8 -0.6 2.7 92 0.4 W 15 19 8 10 - - 7.2
26/12:40am 3.8 -1.4 2.7 92 0.4 WSW 19 20 10 11 - - 7.2
26/12:30am 3.8 -1.0 2.8 93 0.4 W 17 19 9 10 - - 7.2
26/12:20am 4.0 -1.1 2.9 92 0.4 W 19 22 10 12 - - 7.2
26/12:10am 4.2 -0.5 3.0 92 0.5 W 17 19 9 10 - - 7.2
26/12:00am 4.1 -0.6 3.1 93 0.4 W 17 20 9 11 - - 7.2
 
Date/Time
EST
Temp
°C
App
Temp
°C
Dew
Point
°C
Rel
Hum
%
Delta-T
°C
Wind Press
QNH
hPa
Press
MSL
hPa
Rain since
9am
mm
Dir  Spd
km/h
Gust
km/h
Spd
kts
Gust
kts
25/11:50pm 4.0 -0.7 2.9 92 0.4 W 17 20 9 11 - - 7.2
25/11:40pm 3.9 -0.8 2.9 93 0.4 WSW 17 20 9 11 - - 7.2
25/11:30pm 3.7 -0.7 2.8 94 0.4 W 15 19 8 10 - - 7.2
25/11:20pm 3.5 -0.5 2.7 94 0.3 W 13 17 7 9 - - 7.2
25/11:10pm 3.6 -0.4 2.8 94 0.3 W 13 15 7 8 - - 7.2
25/11:00pm 3.7 0.1 2.9 94 0.3 W 11 11 6 6 - - 7.2
25/10:50pm 4.1 0.5 3.2 94 0.4 W 11 13 6 7 - - 7.2
25/10:40pm 4.3 0.8 3.4 94 0.4 W 11 11 6 6 - - 7.2
25/10:30pm 4.7 0.8 3.5 92 0.5 W 13 15 7 8 - - 7.2
25/10:20pm 4.9 0.7 3.6 91 0.5 W 15 19 8 10 - - 7.2
25/10:10pm 5.0 0.4 3.7 91 0.5 WSW 17 19 9 10 - - 7.2
25/10:00pm 5.4 0.2 3.6 88 0.8 WSW 20 22 11 12 - - 7.2
25/09:50pm 5.6 0.6 3.8 88 0.8 WSW 19 20 10 11 - - 7.2
25/09:40pm 5.9 0.8 4.1 88 0.8 WSW 20 24 11 13 - - 7.2
25/09:30pm 6.3 1.4 4.2 86 0.9 WSW 19 20 10 11 - - 7.2
25/09:20pm 6.4 1.6 4.4 87 0.9 WSW 19 19 10 10 - - 7.2
25/09:10pm 6.5 1.5 4.4 86 0.9 WSW 20 22 11 12 - - 7.2
25/09:00pm 6.7 0.9 4.4 85 1.0 WSW 24 30 13 16 - - 7.2
25/08:50pm 6.6 -0.4 4.0 83 1.1 WSW 30 32 16 17 - - 7.2
25/08:40pm 6.6 0.0 4.2 85 1.0 WSW 28 32 15 17 - - 7.2
25/08:30pm 6.6 0.0 4.1 84 1.1 WSW 28 32 15 17 - - 7.2
25/08:20pm 6.5 0.3 4.1 85 1.0 WSW 26 30 14 16 - - 7.2
25/08:10pm 6.6 0.4 4.1 84 1.1 WSW 26 32 14 17 - - 7.2
25/08:00pm 6.7 0.9 4.4 85 1.0 WSW 24 32 13 17 - - 7.2
25/07:50pm 6.7 0.5 4.3 85 1.0 WSW 26 30 14 16 - - 7.2
25/07:40pm 6.8 0.6 4.5 85 1.0 WSW 26 32 14 17 - - 7.2
25/07:30pm 6.8 2.0 4.7 86 0.9 WSW 19 22 10 12 - - 7.2
25/07:20pm 6.9 1.1 4.5 85 1.0 WSW 24 26 13 14 - - 7.2
25/07:10pm 6.9 0.8 4.7 86 1.0 W 26 33 14 18 - - 7.2
25/07:00pm 6.7 1.3 4.5 86 1.0 W 22 28 12 15 - - 7.2
25/06:50pm 6.2 2.5 4.3 88 0.8 WNW 13 15 7 8 - - 7.2
25/06:40pm 6.1 3.1 4.2 88 0.8 WNW 9 11 5 6 - - 6.8
25/06:30pm 6.1 3.6 4.9 92 0.5 NW 7 9 4 5 - - 6.8
25/06:20pm 6.3 3.8 5.0 91 0.6 WNW 7 11 4 6 - - 6.8
25/06:10pm 6.5 3.7 5.2 91 0.6 W 9 11 5 6 - - 6.8
25/06:00pm 6.5 2.6 5.3 92 0.5 WSW 15 20 8 11 - - 6.8
25/05:50pm 6.8 0.4 5.4 91 0.6 WSW 28 43 15 23 - - 6.8
25/05:40pm 8.6 4.2 2.7 66 2.5 W 15 19 8 10 - - 4.8
25/05:30pm 8.8 3.9 2.1 63 2.8 W 17 20 9 11 - - 4.8
25/05:20pm 9.2 4.2 1.4 58 3.2 W 17 20 9 11 - - 4.8
25/05:10pm 9.9 5.7 3.6 65 2.8 W 15 17 8 9 - - 4.8
25/05:00pm 9.8 5.1 3.0 62 2.9 W 17 20 9 11 - - 4.8
25/04:50pm 9.2 4.2 3.4 67 2.5 W 19 20 10 11 - - 4.8

Other formats

Comma delimited format used in spreadsheet applications
http://www.bom.gov.au/fwo/IDN60801/IDN60801.99791.axf

JavaScript Object Notation format (JSON) in row-major order
http://www.bom.gov.au/fwo/IDN60801/IDN60801.99791.json

Data quality

Most of these data are generated automatically and are frequently updated. Quality checks on data are not normally performed. It is possible for incorrect values to appear. Refer to information at About Latest Weather Observations and please check the disclaimer before using these data.